North Sioux City, SD (57049)

3:26 AM CDT on August 30, 2014 (GMT -0500)
McCook Lake SD | Change Station
CLOSE
Current Station
Personal Weather Station
Location: McCook Lake, SD
Elevation: 1114 ft
Nearby Weather Stations

Elev 1114 ft 42.54 °N, 96.51 °W | Updated 13 seconds ago

Clear
Clear
64.3 °F
Feels Like 64.3 °F
N
4.0
Wind Variable Wind from NW
Gusts 7.0 mph

Today
High -- | Low -- °F
--% Chance of Precip.
Yesterday
High -- | Low -- °F
Precip. -- in
6:48 AM 8:03 PM
Waxing Crescent, 20% visible
Pressure 29.85 in
Visibility 10.0 miles
Clouds Clear
Dew Point 64 °F
Humidity 98%
Rainfall 0.00 in
Snow Depth Not available.
UV 0 out of 12
Pollen 8.20 out of 12
Air Quality Not available.
Flu Activity Not available.
METAR KSUX 300752Z AUTO 00000KT 10SM CLR 18/17 A2985

More Conditions Fewer Conditions

Pressure 29.85 in
Visibility 10.0 miles
Clouds Clear
Dew Point 64 °F
Humidity 98%
Rainfall 0.00 in
Snow Depth Not available.
UV 0 out of 12
Pollen 8.20 out of 12
Air Quality Not available.
Flu Activity Not available.
METAR KSUX 300752Z AUTO 00000KT 10SM CLR 18/17 A2985

More Conditions Fewer Conditions

10-Day Weather Forecast

Almanac

Astronomy

Aug. 30, 2014 Rise Set
Actual Time 6:48 AM CDT 8:03 PM CDT
Civil Twilight 6:19 AM CDT 8:32 PM CDT
Nautical Twilight 5:44 AM CDT 9:07 PM CDT
Astronomical Twilight 5:07 AM CDT 9:43 PM CDT
Moon 11:44 AM CDT 10:31 PM CDT
Length of Visible Light 14h 12m
Length of Day
13h 14m
Tomorrow will be 2m 45s shorter.
Waxing Crescent, 20% of the Moon is Illuminated
Today
Waxing Crescent
Sep 2
First Quarter
Sep 8
Full
Sep 15
Last Quarter
Sep 24
New

Today's Extremes

State Highs State Lows

Community

WunderPhotos

Upload Photos

1,748,472 photos uploaded!

Nearby

Snow Depth

Station Depth Elevation
North Rapid Creek 0 in 6130 ft
Blind Park 0 in 6890 ft

Earthquake Activity

City Distance Mag. Time & Date
No recent earthquake activity has been reported nearby.
Minimum magnitude displayed is 2.5.

Coastal Water Temperatures

Place Temperature
No Stations Reporting

Nearby Weather Stations